Baltimore, Maryland
Traffic Map
Current Weather Conditions
Baltimore, Maryland
Broken Clouds
Broken Clouds
54°
Feels Like: 54°
Wind Chill: 54° Ceiling: 3800
Heat Index: 54° Visibility: 10mi
Dew Point: 43° Wind: 12mph
Humidity: 66% Direction: 290° (WNW)
Pressure: 29.86in Gusts: 17mph
Raw Report DataKBWI 231254Z 29010G15KT 10SM BKN038 BKN055 BKN110 12/06 A2986 RMK AO2 SLP110 T01220061
Traffic Incident Summary
Active as of:
Severity:
Category:
InformationThere was an issue retrieving the traffic information for this location. Please try a different location or try again shortly.
Advertisements
Track Severe Weather on mobile